Aurora, SD

5:36 PM CST on November 25, 2014 (GMT -0600)
Neighborhood | Change Station
CLOSE
Current Station
Personal Weather Station
Location: Brookings, SD
Elevation: 1627 ft
Nearby Weather Stations

Elev 1627 ft 44.29 °N, 96.78 °W | Updated 3 minutes ago

Partly Cloudy
Partly Cloudy
31.6 °F
Feels Like 32 °F
N
2.0
Wind Variable Wind from East
Gusts 3.0 mph

Today
High -- | Low -- °F
--% Chance of Precip.
Yesterday
High -- | Low -- °F
Precip. -- in
7:35 AM 4:51 PM
Waxing Crescent, 14% visible
Pressure 29.84 in
Visibility 10.0 miles
Clouds Mostly Cloudy 6000 ft
Mostly Cloudy 8000 ft
Windchill 32 °F
Dew Point 24 °F
Humidity 73%
Rainfall 0.00 in
Snow Depth Not available.
UV 0.0 out of 12
Pollen .10 out of 12
Air Quality Not available.
Flu Activity Not available.
METAR KMDS 252315Z AUTO 16011G15KT 10SM BKN060 BKN080 00/M04 A2984 RMK AO2

More Conditions Fewer Conditions

Pressure 29.84 in
Visibility 10.0 miles
Clouds Mostly Cloudy 6000 ft
Mostly Cloudy 8000 ft
Windchill 32 °F
Dew Point 24 °F
Humidity 73%
Rainfall 0.00 in
Snow Depth Not available.
UV 0.0 out of 12
Pollen .10 out of 12
Air Quality Not available.
Flu Activity Not available.
METAR KMDS 252315Z AUTO 16011G15KT 10SM BKN060 BKN080 00/M04 A2984 RMK AO2

More Conditions Fewer Conditions

10-Day Weather Forecast

Almanac

Astronomy

Nov. 25, 2014 Rise Set
Actual Time
Civil Twilight
Nautical Twilight
Astronomical Twilight
Moon
Length of Visible Light
Length of Day
Tomorrow will be .
, % of the Moon is Illuminated

Today's Extremes

State Highs State Lows

Community

WunderPhotos

Upload Photos

1,773,624 photos uploaded!

WunderBlogs® & News

Nearby

Air Quality

  Air Quality AQ Index Pollutant
Not available.

Snow Depth

Station Depth Elevation

Earthquake Activity

City Distance Mag. Time & Date
Minimum magnitude displayed is 2.5.

Coastal Water Temperatures

Place Temperature

Nearby Weather Stations